Boca Raton, FL (33428)

10:05 AM EDT on May 05, 2015 (GMT -0400)
Boca (C6162) | | Change Station
CLOSE
Current Station
Personal Weather Station
Location: Boca Raton, FL
Elevation: 12 ft
Nearby Weather Stations

Elev 12 ft 26.34 °N, 80.21 °W | Updated 9 seconds ago

Rain
Rain
73.1 °F
Feels Like 72 °F
N
4.0
Wind Variable Wind from East
Gusts 5.0 mph

Today
High -- | Low -- °F
--% Chance of Precip.
Yesterday
High -- | Low -- °F
Precip. -- in
6:40 AM 7:54 PM
Full, 98% visible
Pressure 30.12 in
Visibility 9.0 miles
Clouds Few 1600 ft
Scattered Clouds 2700 ft
Overcast 12000 ft
Heat Index 72 °F
Dew Point 68 °F
Humidity 84%
Rainfall 0.00 in
Snow Depth Not available.
UV 0.0 out of 12
Pollen .60 out of 12
Air Quality Not available.
Flu Activity Local Activity
METAR KPMP 051353Z 08011G21KT 9SM -RA FEW016 SCT027 OVC120 23/21 A3011 RMK AO2 PK WND 07030/1254 RAB05 SLP198 P0001 T02280206

More Conditions Fewer Conditions

Pressure 30.12 in
Visibility 9.0 miles
Clouds Few 1600 ft
Scattered Clouds 2700 ft
Overcast 12000 ft
Heat Index 72 °F
Dew Point 68 °F
Humidity 84%
Rainfall 0.00 in
Snow Depth Not available.
UV 0.0 out of 12
Pollen .60 out of 12
Air Quality Not available.
Flu Activity Local Activity
METAR KPMP 051353Z 08011G21KT 9SM -RA FEW016 SCT027 OVC120 23/21 A3011 RMK AO2 PK WND 07030/1254 RAB05 SLP198 P0001 T02280206

More Conditions Fewer Conditions

Nepal has a long way to go to dig out and rebuild from a devastating earthquake. We have teamed up with several charities and organizations to make contributing to the relief effort as easy as possible.
How you can help: Portlight Strategies | Red Cross
Nowcast | as of 8:33 am EDT on May 5, 2015

Scattered showers and thunderstorms mainly situated across the Atlantic waters continue to slowly push to the northwest. This activity is showing signs of weakening as it pushes inland but could still produce gusty winds of 10-20 mph and brief heavy downpours of up to one inch per hour across Metro Miami-Dade County.

×

10-Day Weather Forecast

Almanac

Astronomy

May. 05, 2015 Rise Set
Actual Time
Civil Twilight
Nautical Twilight
Astronomical Twilight
Moon
Length of Visible Light
Length of Day
Tomorrow will be .
, % of the Moon is Illuminated

Today's Extremes

State Highs State Lows

Community

WunderPhotos

Upload Photos

1,818,900 photos uploaded!

WunderBlogs® & News

Nearby

Air Quality

  Air Quality AQ Index Pollutant
Not available.

Snow Depth

Station Depth Elevation

Earthquake Activity

City Distance Mag. Time & Date
Minimum magnitude displayed is 2.5.

Coastal Water Temperatures

Place Temperature

Stations

Nearby Weather Stations

Station Location Temp. Windchill Dew Point Humidity Wind Precip. Elev Updated Type